sensor_id;sensor_type;location;lat;lon;timestamp;P1;durP1;ratioP1;P2;durP2;ratioP2
74483;SDS011;62942;52.462;10.846;2022-09-23T00:00:43;2.4;;;3.7;;
74483;SDS011;62942;52.462;10.846;2022-09-23T00:01:53;2.2;;;3.8;;
74483;SDS011;62942;52.462;10.846;2022-09-23T00:03:03;2.4;;;5.8;;
74483;SDS011;62942;52.462;10.846;2022-09-23T00:04:03;2.2;;;4.5;;
74483;SDS011;62942;52.462;10.846;2022-09-23T00:05:13;2.2;;;3.9;;
74483;SDS011;62942;52.462;10.846;2022-09-23T00:06:23;2.1;;;4.7;;
74483;SDS011;62942;52.462;10.846;2022-09-23T00:07:23;2.1;;;3.7;;
74483;SDS011;62942;52.462;10.846;2022-09-23T00:08:33;2.1;;;4.3;;
74483;SDS011;62942;52.462;10.846;2022-09-23T00:09:43;2;;;4.5;;
74483;SDS011;62942;52.462;10.846;2022-09-23T00:10:53;2.1;;;3.5;;
74483;SDS011;62942;52.462;10.846;2022-09-23T00:11:53;2.2;;;4.4;;
74483;SDS011;62942;52.462;10.846;2022-09-23T00:13:03;2.1;;;6.3;;
74483;SDS011;62942;52.462;10.846;2022-09-23T00:14:13;2;;;3.4;;
74483;SDS011;62942;52.462;10.846;2022-09-23T00:15:23;2.1;;;3.6;;
74483;SDS011;62942;52.462;10.846;2022-09-23T00:16:33;2;;;3.8;;
74483;SDS011;62942;52.462;10.846;2022-09-23T00:17:43;2.1;;;4.5;;
74483;SDS011;62942;52.462;10.846;2022-09-23T00:18:53;2.2;;;4.4;;
74483;SDS011;62942;52.462;10.846;2022-09-23T00:20:03;2.2;;;3.9;;
74483;SDS011;62942;52.462;10.846;2022-09-23T00:21:13;2.1;;;3.9;;
74483;SDS011;62942;52.462;10.846;2022-09-23T00:22:23;2.1;;;4;;
74483;SDS011;62942;52.462;10.846;2022-09-23T00:23:23;2.3;;;4.9;;
74483;SDS011;62942;52.462;10.846;2022-09-23T00:24:33;2.1;;;4.7;;
74483;SDS011;62942;52.462;10.846;2022-09-23T00:25:43;2.2;;;4.3;;
74483;SDS011;62942;52.462;10.846;2022-09-23T00:26:53;2.3;;;3.4;;
74483;SDS011;62942;52.462;10.846;2022-09-23T00:27:53;2.2;;;4.5;;
74483;SDS011;62942;52.462;10.846;2022-09-23T00:29:03;2.2;;;4.1;;
74483;SDS011;62942;52.462;10.846;2022-09-23T00:30:13;2.2;;;4;;
74483;SDS011;62942;52.462;10.846;2022-09-23T00:31:23;2.1;;;3;;
74483;SDS011;62942;52.462;10.846;2022-09-23T00:32:33;2.3;;;3.9;;
74483;SDS011;62942;52.462;10.846;2022-09-23T00:33:43;2.6;;;5;;
74483;SDS011;62942;52.462;10.846;2022-09-23T00:34:53;2.4;;;3.8;;
74483;SDS011;62942;52.462;10.846;2022-09-23T00:36:04;2.2;;;3.6;;
74483;SDS011;62942;52.462;10.846;2022-09-23T00:37:03;2.2;;;4.6;;
74483;SDS011;62942;52.462;10.846;2022-09-23T00:38:13;2.4;;;4.1;;
74483;SDS011;62942;52.462;10.846;2022-09-23T00:39:23;2.3;;;3.6;;
74483;SDS011;62942;52.462;10.846;2022-09-23T00:40:23;2.3;;;4.9;;
74483;SDS011;62942;52.462;10.846;2022-09-23T00:41:33;2.2;;;3.5;;
74483;SDS011;62942;52.462;10.846;2022-09-23T00:42:45;2.4;;;4;;
74483;SDS011;62942;52.462;10.846;2022-09-23T00:43:54;2.2;;;4.1;;
74483;SDS011;62942;52.462;10.846;2022-09-23T00:45:03;2.4;;;4.5;;
74483;SDS011;62942;52.462;10.846;2022-09-23T00:46:14;2.4;;;4.6;;
74483;SDS011;62942;52.462;10.846;2022-09-23T00:47:24;2.6;;;3.7;;
74483;SDS011;62942;52.462;10.846;2022-09-23T00:48:33;2.5;;;4;;
74483;SDS011;62942;52.462;10.846;2022-09-23T00:49:43;2.4;;;3.9;;
74483;SDS011;62942;52.462;10.846;2022-09-23T00:50:53;2.6;;;4.1;;
74483;SDS011;62942;52.462;10.846;2022-09-23T00:51:54;2.6;;;4.2;;
74483;SDS011;62942;52.462;10.846;2022-09-23T00:53:04;2.4;;;6.4;;
74483;SDS011;62942;52.462;10.846;2022-09-23T00:54:13;2.7;;;5.1;;
74483;SDS011;62942;52.462;10.846;2022-09-23T00:55:24;2.7;;;4;;
74483;SDS011;62942;52.462;10.846;2022-09-23T00:56:33;2.6;;;3.9;;
74483;SDS011;62942;52.462;10.846;2022-09-23T00:57:33;2.9;;;4;;
74483;SDS011;62942;52.462;10.846;2022-09-23T00:58:43;3;;;4.5;;
74483;SDS011;62942;52.462;10.846;2022-09-23T00:59:53;2.8;;;4.8;;
74483;SDS011;62942;52.462;10.846;2022-09-23T01:01:03;3;;;5.7;;
74483;SDS011;62942;52.462;10.846;2022-09-23T01:02:13;2.9;;;4.3;;
74483;SDS011;62942;52.462;10.846;2022-09-23T01:03:23;3.1;;;5.5;;
74483;SDS011;62942;52.462;10.846;2022-09-23T01:04:33;3.2;;;5.3;;
74483;SDS011;62942;52.462;10.846;2022-09-23T01:05:43;2.8;;;4;;
74483;SDS011;62942;52.462;10.846;2022-09-23T01:06:53;2.8;;;4.2;;
74483;SDS011;62942;52.462;10.846;2022-09-23T01:08:03;3.4;;;4.8;;
74483;SDS011;62942;52.462;10.846;2022-09-23T01:09:13;3.2;;;5.3;;
74483;SDS011;62942;52.462;10.846;2022-09-23T01:10:23;3.2;;;4.9;;
74483;SDS011;62942;52.462;10.846;2022-09-23T01:11:35;3.1;;;4.9;;
74483;SDS011;62942;52.462;10.846;2022-09-23T01:12:48;2.9;;;4.8;;
74483;SDS011;62942;52.462;10.846;2022-09-23T01:13:54;2.4;;;4.1;;
74483;SDS011;62942;52.462;10.846;2022-09-23T01:15:05;2.7;;;6.2;;
74483;SDS011;62942;52.462;10.846;2022-09-23T01:16:13;3.2;;;5.3;;
74483;SDS011;62942;52.462;10.846;2022-09-23T01:17:23;3.2;;;4.8;;
74483;SDS011;62942;52.462;10.846;2022-09-23T01:18:34;3;;;4.8;;
74483;SDS011;62942;52.462;10.846;2022-09-23T01:19:49;3;;;4.1;;
74483;SDS011;62942;52.462;10.846;2022-09-23T01:20:55;3.1;;;4.8;;
74483;SDS011;62942;52.462;10.846;2022-09-23T01:22:05;3.3;;;5.2;;
74483;SDS011;62942;52.462;10.846;2022-09-23T01:23:19;3.1;;;6.7;;
74483;SDS011;62942;52.462;10.846;2022-09-23T01:24:29;2.9;;;4.4;;
74483;SDS011;62942;52.462;10.846;2022-09-23T01:25:38;3.2;;;5;;
74483;SDS011;62942;52.462;10.846;2022-09-23T01:26:47;2.9;;;6.1;;
74483;SDS011;62942;52.462;10.846;2022-09-23T01:28:00;2.8;;;3.9;;
74483;SDS011;62942;52.462;10.846;2022-09-23T01:29:09;2.8;;;4.9;;
74483;SDS011;62942;52.462;10.846;2022-09-23T01:30:16;2.8;;;5.3;;
74483;SDS011;62942;52.462;10.846;2022-09-23T01:31:23;3.2;;;8.5;;
74483;SDS011;62942;52.462;10.846;2022-09-23T01:32:35;2.7;;;5.1;;
74483;SDS011;62942;52.462;10.846;2022-09-23T01:33:44;2.6;;;3.9;;
74483;SDS011;62942;52.462;10.846;2022-09-23T01:34:44;2.6;;;4.6;;
74483;SDS011;62942;52.462;10.846;2022-09-23T01:35:57;2.7;;;4.3;;
74483;SDS011;62942;52.462;10.846;2022-09-23T01:37:05;2.7;;;4;;
74483;SDS011;62942;52.462;10.846;2022-09-23T01:38:15;2.8;;;5.6;;
74483;SDS011;62942;52.462;10.846;2022-09-23T01:39:24;2.8;;;4;;
74483;SDS011;62942;52.462;10.846;2022-09-23T01:40:36;2.8;;;5.3;;
74483;SDS011;62942;52.462;10.846;2022-09-23T01:41:44;2.8;;;3.9;;
74483;SDS011;62942;52.462;10.846;2022-09-23T01:42:44;2.9;;;4.2;;
74483;SDS011;62942;52.462;10.846;2022-09-23T01:43:54;2.9;;;4.2;;
74483;SDS011;62942;52.462;10.846;2022-09-23T01:44:54;3.2;;;5.2;;
74483;SDS011;62942;52.462;10.846;2022-09-23T01:46:05;3;;;4.8;;
74483;SDS011;62942;52.462;10.846;2022-09-23T01:47:13;2.8;;;4.3;;
74483;SDS011;62942;52.462;10.846;2022-09-23T01:48:14;3;;;4.5;;
74483;SDS011;62942;52.462;10.846;2022-09-23T01:49:24;2.7;;;4;;
74483;SDS011;62942;52.462;10.846;2022-09-23T01:50:33;2.8;;;4.9;;
74483;SDS011;62942;52.462;10.846;2022-09-23T01:51:44;2.8;;;4.7;;
74483;SDS011;62942;52.462;10.846;2022-09-23T01:52:43;2.6;;;4.4;;
74483;SDS011;62942;52.462;10.846;2022-09-23T01:53:54;3;;;5;;
74483;SDS011;62942;52.462;10.846;2022-09-23T01:55:04;3.2;;;5.2;;
74483;SDS011;62942;52.462;10.846;2022-09-23T01:56:15;3.2;;;5.4;;
74483;SDS011;62942;52.462;10.846;2022-09-23T01:57:13;3.3;;;6.1;;
74483;SDS011;62942;52.462;10.846;2022-09-23T01:58:23;2.9;;;4;;
74483;SDS011;62942;52.462;10.846;2022-09-23T01:59:33;2.9;;;4.8;;
74483;SDS011;62942;52.462;10.846;2022-09-23T02:00:45;3.2;;;5.2;;
74483;SDS011;62942;52.462;10.846;2022-09-23T02:01:54;3;;;5.1;;
74483;SDS011;62942;52.462;10.846;2022-09-23T02:02:53;3;;;6.4;;
74483;SDS011;62942;52.462;10.846;2022-09-23T02:04:04;2.9;;;3.8;;
74483;SDS011;62942;52.462;10.846;2022-09-23T02:05:13;3;;;6.6;;
74483;SDS011;62942;52.462;10.846;2022-09-23T02:06:24;2.9;;;5.7;;
74483;SDS011;62942;52.462;10.846;2022-09-23T02:07:33;2.9;;;4.4;;
74483;SDS011;62942;52.462;10.846;2022-09-23T02:08:43;3.3;;;7.6;;
74483;SDS011;62942;52.462;10.846;2022-09-23T02:09:44;3.1;;;4.6;;
74483;SDS011;62942;52.462;10.846;2022-09-23T02:10:54;3.1;;;5;;
74483;SDS011;62942;52.462;10.846;2022-09-23T02:12:04;3.1;;;4.9;;
74483;SDS011;62942;52.462;10.846;2022-09-23T02:13:13;3.1;;;4.5;;
74483;SDS011;62942;52.462;10.846;2022-09-23T02:14:14;3;;;4.2;;
74483;SDS011;62942;52.462;10.846;2022-09-23T02:15:24;3.6;;;7.1;;
74483;SDS011;62942;52.462;10.846;2022-09-23T02:16:34;3.2;;;5.6;;
74483;SDS011;62942;52.462;10.846;2022-09-23T02:17:44;3.2;;;4.8;;
74483;SDS011;62942;52.462;10.846;2022-09-23T02:18:55;3.5;;;5.6;;
74483;SDS011;62942;52.462;10.846;2022-09-23T02:20:03;3.7;;;6.5;;
74483;SDS011;62942;52.462;10.846;2022-09-23T02:21:13;3.6;;;5.9;;
74483;SDS011;62942;52.462;10.846;2022-09-23T02:22:24;3.5;;;5.1;;
74483;SDS011;62942;52.462;10.846;2022-09-23T02:23:24;3.6;;;5.8;;
74483;SDS011;62942;52.462;10.846;2022-09-23T02:24:33;3.7;;;4.9;;
74483;SDS011;62942;52.462;10.846;2022-09-23T02:25:44;3.7;;;5.7;;
74483;SDS011;62942;52.462;10.846;2022-09-23T02:26:44;3.6;;;5;;
74483;SDS011;62942;52.462;10.846;2022-09-23T02:27:54;3.5;;;5;;
74483;SDS011;62942;52.462;10.846;2022-09-23T02:29:05;3.6;;;8.8;;
74483;SDS011;62942;52.462;10.846;2022-09-23T02:30:14;4;;;7.3;;
74483;SDS011;62942;52.462;10.846;2022-09-23T02:31:26;3.6;;;5.2;;
74483;SDS011;62942;52.462;10.846;2022-09-23T02:32:25;3.7;;;6.2;;
74483;SDS011;62942;52.462;10.846;2022-09-23T02:33:23;3.5;;;5.2;;
74483;SDS011;62942;52.462;10.846;2022-09-23T02:34:36;3.7;;;5.2;;
74483;SDS011;62942;52.462;10.846;2022-09-23T02:35:33;4;;;5.8;;
74483;SDS011;62942;52.462;10.846;2022-09-23T02:36:44;4;;;7.2;;
74483;SDS011;62942;52.462;10.846;2022-09-23T02:37:43;4.2;;;6.2;;
74483;SDS011;62942;52.462;10.846;2022-09-23T02:38:53;4.6;;;7.4;;
74483;SDS011;62942;52.462;10.846;2022-09-23T02:40:06;4.1;;;5.6;;
74483;SDS011;62942;52.462;10.846;2022-09-23T02:41:03;4.2;;;6.1;;
74483;SDS011;62942;52.462;10.846;2022-09-23T02:42:14;3.8;;;4.5;;
74483;SDS011;62942;52.462;10.846;2022-09-23T02:43:24;4.2;;;6.7;;
74483;SDS011;62942;52.462;10.846;2022-09-23T02:44:23;3.8;;;6.6;;
74483;SDS011;62942;52.462;10.846;2022-09-23T02:45:33;4.2;;;5.7;;
74483;SDS011;62942;52.462;10.846;2022-09-23T02:46:33;4;;;5.3;;
74483;SDS011;62942;52.462;10.846;2022-09-23T02:47:43;3.9;;;5.7;;
74483;SDS011;62942;52.462;10.846;2022-09-23T02:48:43;4;;;5.6;;
74483;SDS011;62942;52.462;10.846;2022-09-23T02:49:53;4;;;6.3;;
74483;SDS011;62942;52.462;10.846;2022-09-23T02:51:03;3.6;;;4.8;;
74483;SDS011;62942;52.462;10.846;2022-09-23T02:52:03;3.5;;;5.2;;
74483;SDS011;62942;52.462;10.846;2022-09-23T02:53:13;3.4;;;5.2;;
74483;SDS011;62942;52.462;10.846;2022-09-23T02:54:23;3.6;;;5.4;;
74483;SDS011;62942;52.462;10.846;2022-09-23T02:55:33;3.8;;;5.5;;
74483;SDS011;62942;52.462;10.846;2022-09-23T02:56:33;3.8;;;5.4;;
74483;SDS011;62942;52.462;10.846;2022-09-23T02:57:43;3.9;;;5.7;;
74483;SDS011;62942;52.462;10.846;2022-09-23T02:58:53;3.5;;;6.3;;
74483;SDS011;62942;52.462;10.846;2022-09-23T03:00:03;3.5;;;5.2;;
74483;SDS011;62942;52.462;10.846;2022-09-23T03:01:16;3.5;;;4.6;;
74483;SDS011;62942;52.462;10.846;2022-09-23T03:02:26;3.8;;;5.5;;
74483;SDS011;62942;52.462;10.846;2022-09-23T03:03:35;3.5;;;5;;
74483;SDS011;62942;52.462;10.846;2022-09-23T03:04:46;3.7;;;5.2;;
74483;SDS011;62942;52.462;10.846;2022-09-23T03:05:54;3.6;;;6.6;;
74483;SDS011;62942;52.462;10.846;2022-09-23T03:06:56;3.7;;;5.1;;
74483;SDS011;62942;52.462;10.846;2022-09-23T03:08:06;3.6;;;5.3;;
74483;SDS011;62942;52.462;10.846;2022-09-23T03:09:14;4;;;7.5;;
74483;SDS011;62942;52.462;10.846;2022-09-23T03:10:23;3.6;;;4.8;;
74483;SDS011;62942;52.462;10.846;2022-09-23T03:11:23;3.9;;;5.8;;
74483;SDS011;62942;52.462;10.846;2022-09-23T03:12:34;3.9;;;5.6;;
74483;SDS011;62942;52.462;10.846;2022-09-23T03:13:47;3.6;;;4.9;;
74483;SDS011;62942;52.462;10.846;2022-09-23T03:14:43;4;;;5;;
74483;SDS011;62942;52.462;10.846;2022-09-23T03:15:54;4.1;;;6.6;;
74483;SDS011;62942;52.462;10.846;2022-09-23T03:16:54;4;;;7.4;;
74483;SDS011;62942;52.462;10.846;2022-09-23T03:18:06;4.1;;;6.1;;
74483;SDS011;62942;52.462;10.846;2022-09-23T03:19:16;4;;;5.9;;
74483;SDS011;62942;52.462;10.846;2022-09-23T03:20:24;4.1;;;6.3;;
74483;SDS011;62942;52.462;10.846;2022-09-23T03:21:23;4.3;;;7.1;;
74483;SDS011;62942;52.462;10.846;2022-09-23T03:22:33;4.1;;;5.4;;
74483;SDS011;62942;52.462;10.846;2022-09-23T03:23:43;4.6;;;7.4;;
74483;SDS011;62942;52.462;10.846;2022-09-23T03:24:43;4.6;;;6.5;;
74483;SDS011;62942;52.462;10.846;2022-09-23T03:25:53;4.3;;;6.6;;
74483;SDS011;62942;52.462;10.846;2022-09-23T03:27:03;4.3;;;6.2;;
74483;SDS011;62942;52.462;10.846;2022-09-23T03:28:03;4.5;;;6.2;;
74483;SDS011;62942;52.462;10.846;2022-09-23T03:29:13;4.5;;;6.4;;
74483;SDS011;62942;52.462;10.846;2022-09-23T03:30:23;4.8;;;6.5;;
74483;SDS011;62942;52.462;10.846;2022-09-23T03:31:33;4.6;;;6.4;;
74483;SDS011;62942;52.462;10.846;2022-09-23T03:32:33;4.4;;;6.4;;
74483;SDS011;62942;52.462;10.846;2022-09-23T03:33:44;4.2;;;5.9;;
74483;SDS011;62942;52.462;10.846;2022-09-23T03:34:43;4.3;;;6;;
74483;SDS011;62942;52.462;10.846;2022-09-23T03:35:53;4.3;;;5.6;;
74483;SDS011;62942;52.462;10.846;2022-09-23T03:37:03;4.4;;;9.3;;
74483;SDS011;62942;52.462;10.846;2022-09-23T03:38:13;4.6;;;7.6;;
74483;SDS011;62942;52.462;10.846;2022-09-23T03:39:25;3.9;;;5.4;;
74483;SDS011;62942;52.462;10.846;2022-09-23T03:40:33;4.4;;;7;;
74483;SDS011;62942;52.462;10.846;2022-09-23T03:41:33;4.4;;;5.8;;
74483;SDS011;62942;52.462;10.846;2022-09-23T03:42:43;4.3;;;7.4;;
74483;SDS011;62942;52.462;10.846;2022-09-23T03:43:53;4.2;;;5.9;;
74483;SDS011;62942;52.462;10.846;2022-09-23T03:44:53;4.4;;;5.9;;
74483;SDS011;62942;52.462;10.846;2022-09-23T03:46:03;4.6;;;5.9;;
74483;SDS011;62942;52.462;10.846;2022-09-23T03:47:13;4.1;;;6.7;;
74483;SDS011;62942;52.462;10.846;2022-09-23T03:48:13;4.5;;;6.5;;
74483;SDS011;62942;52.462;10.846;2022-09-23T03:49:23;4.7;;;7;;
74483;SDS011;62942;52.462;10.846;2022-09-23T03:50:33;4.6;;;6.6;;
74483;SDS011;62942;52.462;10.846;2022-09-23T03:51:33;5.3;;;8;;
74483;SDS011;62942;52.462;10.846;2022-09-23T03:52:43;5.6;;;8.4;;
74483;SDS011;62942;52.462;10.846;2022-09-23T03:53:53;6;;;8.4;;
74483;SDS011;62942;52.462;10.846;2022-09-23T03:55:03;5.8;;;7.5;;
74483;SDS011;62942;52.462;10.846;2022-09-23T03:56:13;5.2;;;8.5;;
74483;SDS011;62942;52.462;10.846;2022-09-23T03:57:13;5.2;;;6.8;;
74483;SDS011;62942;52.462;10.846;2022-09-23T03:58:23;5.7;;;7.6;;
74483;SDS011;62942;52.462;10.846;2022-09-23T03:59:33;5.9;;;9.2;;
74483;SDS011;62942;52.462;10.846;2022-09-23T04:00:43;6.1;;;9;;
74483;SDS011;62942;52.462;10.846;2022-09-23T04:01:43;6.1;;;9.3;;
74483;SDS011;62942;52.462;10.846;2022-09-23T04:02:53;5.7;;;7.3;;
74483;SDS011;62942;52.462;10.846;2022-09-23T04:04:03;6;;;8.4;;
74483;SDS011;62942;52.462;10.846;2022-09-23T04:05:03;6;;;7.9;;
74483;SDS011;62942;52.462;10.846;2022-09-23T04:06:13;5.1;;;7.9;;
74483;SDS011;62942;52.462;10.846;2022-09-23T04:07:23;5.5;;;7.8;;
74483;SDS011;62942;52.462;10.846;2022-09-23T04:08:33;5.4;;;7.3;;
74483;SDS011;62942;52.462;10.846;2022-09-23T04:09:43;5.7;;;8.1;;
74483;SDS011;62942;52.462;10.846;2022-09-23T04:10:57;5.9;;;7.3;;
74483;SDS011;62942;52.462;10.846;2022-09-23T04:11:53;6;;;7.6;;
74483;SDS011;62942;52.462;10.846;2022-09-23T04:13:02;6;;;7.3;;
74483;SDS011;62942;52.462;10.846;2022-09-23T04:14:13;6.3;;;8.3;;
74483;SDS011;62942;52.462;10.846;2022-09-23T04:15:13;6.6;;;8.5;;
74483;SDS011;62942;52.462;10.846;2022-09-23T04:16:23;6.5;;;9.2;;
74483;SDS011;62942;52.462;10.846;2022-09-23T04:17:22;6.1;;;7.3;;
74483;SDS011;62942;52.462;10.846;2022-09-23T04:18:33;5.7;;;8;;
74483;SDS011;62942;52.462;10.846;2022-09-23T04:19:43;5.9;;;9.2;;
74483;SDS011;62942;52.462;10.846;2022-09-23T04:20:43;5.3;;;8.4;;
74483;SDS011;62942;52.462;10.846;2022-09-23T04:21:53;4.9;;;6.2;;
74483;SDS011;62942;52.462;10.846;2022-09-23T04:23:02;5;;;6.5;;
74483;SDS011;62942;52.462;10.846;2022-09-23T04:24:03;5.2;;;6.7;;
74483;SDS011;62942;52.462;10.846;2022-09-23T04:25:13;6.1;;;8.7;;
74483;SDS011;62942;52.462;10.846;2022-09-23T04:26:22;5.6;;;7.4;;
74483;SDS011;62942;52.462;10.846;2022-09-23T04:27:32;5.6;;;6.7;;
74483;SDS011;62942;52.462;10.846;2022-09-23T04:28:32;6;;;8;;
74483;SDS011;62942;52.462;10.846;2022-09-23T04:29:43;5.6;;;7.8;;
74483;SDS011;62942;52.462;10.846;2022-09-23T04:30:52;5.2;;;6.6;;
74483;SDS011;62942;52.462;10.846;2022-09-23T04:32:03;5.1;;;6.7;;
74483;SDS011;62942;52.462;10.846;2022-09-23T04:33:12;5.4;;;7.9;;
74483;SDS011;62942;52.462;10.846;2022-09-23T04:34:22;5.6;;;8.4;;
74483;SDS011;62942;52.462;10.846;2022-09-23T04:35:32;6;;;7.5;;
74483;SDS011;62942;52.462;10.846;2022-09-23T04:36:43;6.5;;;7.8;;
74483;SDS011;62942;52.462;10.846;2022-09-23T04:37:52;6.2;;;9.4;;
74483;SDS011;62942;52.462;10.846;2022-09-23T04:39:03;6.3;;;7.6;;
74483;SDS011;62942;52.462;10.846;2022-09-23T04:40:13;5.3;;;6.4;;
74483;SDS011;62942;52.462;10.846;2022-09-23T04:41:23;5.4;;;7.1;;
74483;SDS011;62942;52.462;10.846;2022-09-23T04:42:23;5.8;;;7.2;;
74483;SDS011;62942;52.462;10.846;2022-09-23T04:43:23;5.6;;;7.8;;
74483;SDS011;62942;52.462;10.846;2022-09-23T04:44:32;5.9;;;7.2;;
74483;SDS011;62942;52.462;10.846;2022-09-23T04:45:32;6.3;;;7.5;;
74483;SDS011;62942;52.462;10.846;2022-09-23T04:46:43;6.3;;;8.1;;
74483;SDS011;62942;52.462;10.846;2022-09-23T04:47:42;6.9;;;8.6;;
74483;SDS011;62942;52.462;10.846;2022-09-23T04:48:52;7.3;;;11;;
74483;SDS011;62942;52.462;10.846;2022-09-23T04:50:03;7;;;9.4;;
74483;SDS011;62942;52.462;10.846;2022-09-23T04:51:13;7.7;;;9.2;;
74483;SDS011;62942;52.462;10.846;2022-09-23T04:52:22;8.2;;;9.7;;
74483;SDS011;62942;52.462;10.846;2022-09-23T04:53:33;8.1;;;12;;
74483;SDS011;62942;52.462;10.846;2022-09-23T04:54:42;8.1;;;10.3;;
74483;SDS011;62942;52.462;10.846;2022-09-23T04:55:52;8.4;;;10.6;;
74483;SDS011;62942;52.462;10.846;2022-09-23T04:56:52;8.6;;;10.3;;
74483;SDS011;62942;52.462;10.846;2022-09-23T04:58:02;8.6;;;10.4;;
74483;SDS011;62942;52.462;10.846;2022-09-23T04:59:02;8.5;;;10;;
74483;SDS011;62942;52.462;10.846;2022-09-23T05:00:13;8.7;;;10.7;;
74483;SDS011;62942;52.462;10.846;2022-09-23T05:01:23;8.2;;;10.5;;
74483;SDS011;62942;52.462;10.846;2022-09-23T05:02:32;8.8;;;11.4;;
74483;SDS011;62942;52.462;10.846;2022-09-23T05:03:32;8.8;;;10.8;;
74483;SDS011;62942;52.462;10.846;2022-09-23T05:04:42;9;;;10.3;;
74483;SDS011;62942;52.462;10.846;2022-09-23T05:05:52;9;;;11.3;;
74483;SDS011;62942;52.462;10.846;2022-09-23T05:07:02;8.8;;;12;;
74483;SDS011;62942;52.462;10.846;2022-09-23T05:08:12;8.7;;;11.7;;
74483;SDS011;62942;52.462;10.846;2022-09-23T05:09:13;8.7;;;12.9;;
74483;SDS011;62942;52.462;10.846;2022-09-23T05:10:22;8.4;;;11;;
74483;SDS011;62942;52.462;10.846;2022-09-23T05:11:33;8;;;11.4;;
74483;SDS011;62942;52.462;10.846;2022-09-23T05:12:42;7.3;;;9.7;;
74483;SDS011;62942;52.462;10.846;2022-09-23T05:13:42;7;;;9.1;;
74483;SDS011;62942;52.462;10.846;2022-09-23T05:14:52;6.6;;;7.9;;
74483;SDS011;62942;52.462;10.846;2022-09-23T05:16:03;6.7;;;7.9;;
74483;SDS011;62942;52.462;10.846;2022-09-23T05:17:02;7;;;8.4;;
74483;SDS011;62942;52.462;10.846;2022-09-23T05:18:12;7.3;;;8.1;;
74483;SDS011;62942;52.462;10.846;2022-09-23T05:19:22;7.9;;;10.2;;
74483;SDS011;62942;52.462;10.846;2022-09-23T05:20:32;7.7;;;10.3;;
74483;SDS011;62942;52.462;10.846;2022-09-23T05:21:42;7;;;9.1;;
74483;SDS011;62942;52.462;10.846;2022-09-23T05:22:42;7;;;9.7;;
74483;SDS011;62942;52.462;10.846;2022-09-23T05:23:45;7.2;;;9.2;;
74483;SDS011;62942;52.462;10.846;2022-09-23T05:24:52;7.6;;;10;;
74483;SDS011;62942;52.462;10.846;2022-09-23T05:26:04;7.6;;;9.4;;
74483;SDS011;62942;52.462;10.846;2022-09-23T05:27:12;7.9;;;9.6;;
74483;SDS011;62942;52.462;10.846;2022-09-23T05:28:22;8;;;10;;
74483;SDS011;62942;52.462;10.846;2022-09-23T05:29:32;8.2;;;11.1;;
74483;SDS011;62942;52.462;10.846;2022-09-23T05:30:42;7.5;;;9.6;;
74483;SDS011;62942;52.462;10.846;2022-09-23T05:31:42;7.1;;;8.5;;
74483;SDS011;62942;52.462;10.846;2022-09-23T05:32:52;6.6;;;8.3;;
74483;SDS011;62942;52.462;10.846;2022-09-23T05:34:03;6.8;;;7.8;;
74483;SDS011;62942;52.462;10.846;2022-09-23T05:35:12;6.7;;;10.9;;
74483;SDS011;62942;52.462;10.846;2022-09-23T05:36:23;6.5;;;8.8;;
74483;SDS011;62942;52.462;10.846;2022-09-23T05:37:22;6.8;;;9.2;;
74483;SDS011;62942;52.462;10.846;2022-09-23T05:38:32;6.9;;;8.6;;
74483;SDS011;62942;52.462;10.846;2022-09-23T05:39:42;6.8;;;8.8;;
74483;SDS011;62942;52.462;10.846;2022-09-23T05:40:42;7;;;9.6;;
74483;SDS011;62942;52.462;10.846;2022-09-23T05:41:52;7;;;9.2;;
74483;SDS011;62942;52.462;10.846;2022-09-23T05:43:02;6.4;;;7.8;;
74483;SDS011;62942;52.462;10.846;2022-09-23T05:44:12;7;;;9.2;;
74483;SDS011;62942;52.462;10.846;2022-09-23T05:45:22;6.4;;;8.7;;
74483;SDS011;62942;52.462;10.846;2022-09-23T05:46:23;6.4;;;7.9;;
74483;SDS011;62942;52.462;10.846;2022-09-23T05:47:32;6.6;;;8.9;;
74483;SDS011;62942;52.462;10.846;2022-09-23T05:48:33;6.9;;;10.3;;
74483;SDS011;62942;52.462;10.846;2022-09-23T05:49:42;6.5;;;9.3;;
74483;SDS011;62942;52.462;10.846;2022-09-23T05:50:52;6.3;;;9.8;;
74483;SDS011;62942;52.462;10.846;2022-09-23T05:52:02;6;;;8.2;;
74483;SDS011;62942;52.462;10.846;2022-09-23T05:53:12;6.3;;;9.1;;
74483;SDS011;62942;52.462;10.846;2022-09-23T05:54:12;5.9;;;8.7;;
74483;SDS011;62942;52.462;10.846;2022-09-23T05:55:22;6;;;8.1;;
74483;SDS011;62942;52.462;10.846;2022-09-23T05:56:33;5.6;;;6.4;;
74483;SDS011;62942;52.462;10.846;2022-09-23T05:57:32;5.6;;;8.6;;
74483;SDS011;62942;52.462;10.846;2022-09-23T05:58:38;5.5;;;7.9;;
74483;SDS011;62942;52.462;10.846;2022-09-23T05:59:42;5.1;;;6.5;;
74483;SDS011;62942;52.462;10.846;2022-09-23T06:00:52;5.1;;;8.2;;
74483;SDS011;62942;52.462;10.846;2022-09-23T06:02:03;4.7;;;7;;
74483;SDS011;62942;52.462;10.846;2022-09-23T06:03:13;4.7;;;6.3;;
74483;SDS011;62942;52.462;10.846;2022-09-23T06:04:22;4.3;;;6.6;;
74483;SDS011;62942;52.462;10.846;2022-09-23T06:05:22;4.2;;;6.2;;
74483;SDS011;62942;52.462;10.846;2022-09-23T06:06:23;3.9;;;5.8;;
74483;SDS011;62942;52.462;10.846;2022-09-23T06:07:22;3.7;;;5.4;;
74483;SDS011;62942;52.462;10.846;2022-09-23T06:08:32;3.9;;;5.2;;
74483;SDS011;62942;52.462;10.846;2022-09-23T06:09:32;3.8;;;5.8;;
74483;SDS011;62942;52.462;10.846;2022-09-23T06:10:43;3.3;;;6.3;;
74483;SDS011;62942;52.462;10.846;2022-09-23T06:11:52;3.4;;;6.2;;
74483;SDS011;62942;52.462;10.846;2022-09-23T06:13:02;3.2;;;5.3;;
74483;SDS011;62942;52.462;10.846;2022-09-23T06:14:12;3.4;;;5.2;;
74483;SDS011;62942;52.462;10.846;2022-09-23T06:15:22;3.3;;;5.7;;
74483;SDS011;62942;52.462;10.846;2022-09-23T06:16:33;3;;;5.3;;
74483;SDS011;62942;52.462;10.846;2022-09-23T06:17:42;3;;;5.3;;
74483;SDS011;62942;52.462;10.846;2022-09-23T06:18:52;3;;;4.8;;
74483;SDS011;62942;52.462;10.846;2022-09-23T06:20:02;3;;;4.8;;
74483;SDS011;62942;52.462;10.846;2022-09-23T06:21:03;3;;;6.4;;
74483;SDS011;62942;52.462;10.846;2022-09-23T06:22:12;2.7;;;4.5;;
74483;SDS011;62942;52.462;10.846;2022-09-23T06:23:22;2.8;;;5.7;;
74483;SDS011;62942;52.462;10.846;2022-09-23T06:24:22;2.7;;;4.8;;
74483;SDS011;62942;52.462;10.846;2022-09-23T06:25:32;2.8;;;3.9;;
74483;SDS011;62942;52.462;10.846;2022-09-23T06:26:32;2.8;;;5.4;;
74483;SDS011;62942;52.462;10.846;2022-09-23T06:27:32;2.6;;;3.9;;
74483;SDS011;62942;52.462;10.846;2022-09-23T06:28:43;2.6;;;4.4;;
74483;SDS011;62942;52.462;10.846;2022-09-23T06:29:42;2.5;;;5.8;;
74483;SDS011;62942;52.462;10.846;2022-09-23T06:30:42;2.3;;;3.7;;
74483;SDS011;62942;52.462;10.846;2022-09-23T06:31:52;2.4;;;4.7;;
74483;SDS011;62942;52.462;10.846;2022-09-23T06:32:53;2.4;;;4.5;;
74483;SDS011;62942;52.462;10.846;2022-09-23T06:33:52;2.5;;;4.5;;
74483;SDS011;62942;52.462;10.846;2022-09-23T06:34:52;2.5;;;5.1;;
74483;SDS011;62942;52.462;10.846;2022-09-23T06:36:03;2.4;;;4.3;;
74483;SDS011;62942;52.462;10.846;2022-09-23T06:37:02;2.5;;;4.3;;
74483;SDS011;62942;52.462;10.846;2022-09-23T06:38:12;2.4;;;4;;
74483;SDS011;62942;52.462;10.846;2022-09-23T06:39:13;2.4;;;3.7;;
74483;SDS011;62942;52.462;10.846;2022-09-23T06:40:22;2.5;;;5.2;;
74483;SDS011;62942;52.462;10.846;2022-09-23T06:41:22;2.5;;;4.7;;
74483;SDS011;62942;52.462;10.846;2022-09-23T06:42:32;2.5;;;4.3;;
74483;SDS011;62942;52.462;10.846;2022-09-23T06:43:42;2.4;;;3.7;;
74483;SDS011;62942;52.462;10.846;2022-09-23T06:44:42;2.4;;;4.2;;
74483;SDS011;62942;52.462;10.846;2022-09-23T06:45:42;2.6;;;5;;
74483;SDS011;62942;52.462;10.846;2022-09-23T06:46:52;2.5;;;3.9;;
74483;SDS011;62942;52.462;10.846;2022-09-23T06:48:02;2.5;;;5.5;;
74483;SDS011;62942;52.462;10.846;2022-09-23T06:49:02;2.3;;;3.8;;
74483;SDS011;62942;52.462;10.846;2022-09-23T06:50:12;2.5;;;4.4;;
74483;SDS011;62942;52.462;10.846;2022-09-23T06:51:12;2.5;;;5.8;;
74483;SDS011;62942;52.462;10.846;2022-09-23T06:52:22;2.5;;;4.5;;
74483;SDS011;62942;52.462;10.846;2022-09-23T06:53:22;2.5;;;4.5;;
74483;SDS011;62942;52.462;10.846;2022-09-23T06:54:22;2.6;;;4.4;;
74483;SDS011;62942;52.462;10.846;2022-09-23T06:55:32;2.5;;;4.5;;